TAF LDDU 230525Z 2306/2406 11008KT 9999 SCT030 BKN050
                 TX19/2310Z TN14/2404Z
           TEMPO 2306/2318 RA
    PROB30 TEMPO 2306/2315 TSRA FEW025CB BKN040
           TEMPO 2306/2310 11015KT
           BECMG 2317/2319 02015KT
    PROB40 TEMPO 2321/2406 02020G30KT=
TAF AMD LDDU 230402Z 2304/2400 11008KT 9999 SCT030 BKN050
                     TX19/2310Z TN15/2323Z
        PROB30 TEMPO 2304/2318 TSRA FEW025CB BKN040
               TEMPO 2309/2313 11015KT
               BECMG 2317/2319 02018KT
        PROB40 TEMPO 2321/2400 02020G30KT=
TAF LDDU 222325Z 2300/2400 11008KT 9999 SCT030 BKN050
                 TX19/2310Z TN15/2323Z
    PROB30 TEMPO 2308/2318 TSRA FEW025CB BKN040
           TEMPO 2309/2313 11015KT
           BECMG 2317/2319 02018KT
    PROB40 TEMPO 2321/2400 02020G30KT=
TAF LDDU 221725Z 2218/2318 11007KT 9999 SCT015 BKN040
                 TX19/2312Z TN15/2305Z
    PROB40 TEMPO 2218/2316 12015KT BKN010
    PROB30 TEMPO 2222/2317 4000 TSRA FEW025CB BKN035
    PROB30 TEMPO 2316/2318 02015KT=
TAF LDDU 221125Z 2212/2312 14014KT 9999 SCT013 BKN020
                 TX19/2212Z TN17/2305Z
    PROB30 TEMPO 2212/2223 RA BKN014
    PROB40 TEMPO 2223/2312 3000 TSRA BKN008 SCT017CB BKN020
           BECMG 2300/2302 09008KT=
TAF LDDU 220525Z 2206/2306 13014KT 9999 SCT030
                 TX20/2212Z TN16/2305Z
    PROB30 TEMPO 2210/2218 RA
    PROB30 TEMPO 2218/2306 4000 TSRA SCT010 FEW017CB BKN020
           BECMG 2300/2302 09008KT=
TAF LDDU 212325Z 2200/2300 11012KT 9999 SCT040
                 TX20/2212Z TN15/2201Z
    PROB30 TEMPO 2203/2208 BKN014
    PROB40 TEMPO 2209/2215 13015G25KT
    PROB30 TEMPO 2212/2219 TSRA FEW020 BKN030
    PROB40 TEMPO 2219/2300 13015G30KT TSRA FEW020 BKN030=